Viola, Wisconsin
Current Conditions -  °F | °C
As of 6:34 PM on Saturday 20 Dec 2014 (Local Time) from KY51 Reporting Station
Overcast Overcast  
Wind Chill: 23°   Ceiling: 700
Heat Index: 29°   Visibility: 4mi
Dew Point: 29°   Wind: 6mph
Humidity: 100%   Direction: 150°SSE
Pressure: 30.17"   Gusts: NA
Location:  43.51°N, 90.67°W
Report Text: KY51 210034Z AUTO 15005KT 4SM OVC007 M01/M01 A3017 RMK AO1 T10151015
Loading
Personal Weather Stations






























Interactive Weather Map New forecast layout! Learn more

10-Day Weather Forecast

Advertisements
Track Severe Weather on mobile